Weather History for Paris, TX

Change the Weather History Date:

Saturday, May 11, 2013

  Actual Average Record
Temperature  
Mean Temperature 66 °F -  
Max Temperature 78 °F 78 °F 87 °F (2000)
Min Temperature 55 °F 59 °F 50 °F (1997)
Cooling Degree Days 2    
Growing Degree Days 16 (Base 50)    
Moisture  
Dew Point 52 °F    
Average Humidity 61    
Maximum Humidity 88    
Minimum Humidity 34    
Precipitation  
Precipitation 0.00 in - - ()
Sea Level Pressure  
Sea Level Pressure 30.11 in    
Wind  
Wind Speed 8 mph (North)    
Max Wind Speed 18 mph    
Max Gust Speed 22 mph    
Visibility 10 miles    
Events      
Averages and records for this station are not official NWS values.
T = Trace of Precipitation, MM = Missing Value Source: NWS Daily Summary

Daily Weather History Graph

Daily Weather History Graph

Search for Another Location

Airport:

Trip Planner

Search our weather history database for the weather conditions in past years. The results will help you decide how hot, cold, wet, or windy it might be!

Date:

Astronomy

May. 11, 2013 Rise Set
Actual Time 6:23 AM CDT 8:12 PM CDT
Civil Twilight 5:56 AM CDT 8:40 PM CDT
Nautical Twilight 5:23 AM CDT 9:13 PM CDT
Astronomical Twilight 4:48 AM CDT 9:48 PM CDT
Moon 7:33 AM CDT (5/11) 9:52 PM CDT (5/11)
Length of Visible Light 14h 43m
Length of Day
13h 48m
Waxing Crescent, 3% of the Moon is Illuminated
May 11
Waxing Crescent
May 17
First Quarter
May 24
Full
May 31
Last Quarter
Jun 8
New

Hourly Weather History & Observations

Time (CDT) Temp. Dew Point Humidity Pressure Visibility Wind Dir Wind Speed Gust Speed Precip Events Conditions
12:15 AM 64.4 °F 55.4 °F 73% 30.06 in 10.0 mi NNW 4.6 mph - N/A   Clear
12:35 AM 64.4 °F 55.4 °F 73% 30.06 in 10.0 mi NNW 5.8 mph - N/A   Clear
12:55 AM 62.6 °F 55.4 °F 77% 30.06 in 10.0 mi North 5.8 mph - N/A   Clear
1:15 AM 64.4 °F 55.4 °F 73% 30.05 in 10.0 mi North 9.2 mph - N/A   Clear
1:35 AM 62.6 °F 55.4 °F 77% 30.04 in 10.0 mi North 8.1 mph - N/A   Clear
1:55 AM 62.6 °F 55.4 °F 77% 30.03 in 10.0 mi North 9.2 mph - N/A   Clear
2:15 AM 62.6 °F 55.4 °F 77% 30.03 in 10.0 mi North 9.2 mph - N/A   Clear
2:35 AM 60.8 °F 55.4 °F 82% 30.04 in 10.0 mi North 9.2 mph - N/A   Clear
2:55 AM 60.8 °F 53.6 °F 77% 30.05 in 10.0 mi NNE 6.9 mph - N/A   Clear
3:15 AM 60.8 °F 55.4 °F 82% 30.06 in 10.0 mi North 5.8 mph - N/A   Clear
3:35 AM 60.8 °F 55.4 °F 82% 30.06 in 10.0 mi North 4.6 mph - N/A   Clear
3:55 AM 60.8 °F 55.4 °F 82% 30.06 in 10.0 mi North 5.8 mph - N/A   Clear
4:15 AM 60.8 °F 55.4 °F 82% 30.06 in 10.0 mi NNW 8.1 mph - N/A   Clear
4:35 AM 60.8 °F 53.6 °F 77% 30.07 in 10.0 mi North 9.2 mph - N/A   Clear
4:55 AM 59.0 °F 53.6 °F 82% 30.06 in 10.0 mi North 8.1 mph - N/A   Clear
5:15 AM 57.2 °F 53.6 °F 88% 30.07 in 10.0 mi North 6.9 mph - N/A   Clear
5:35 AM 57.2 °F 51.8 °F 82% 30.07 in 10.0 mi NNW 8.1 mph - N/A   Clear
5:55 AM 57.2 °F 51.8 °F 82% 30.08 in 10.0 mi NNW 8.1 mph - N/A   Clear
6:15 AM 57.2 °F 51.8 °F 82% 30.09 in 10.0 mi North 9.2 mph - N/A   Clear
6:35 AM 55.4 °F 51.8 °F 88% 30.09 in 10.0 mi North 9.2 mph - N/A   Clear
6:55 AM 55.4 °F 51.8 °F 88% 30.09 in 10.0 mi North 6.9 mph - N/A   Clear
7:15 AM 57.2 °F 51.8 °F 82% 30.10 in 10.0 mi NNW 8.1 mph - N/A   Clear
7:35 AM 59.0 °F 51.8 °F 77% 30.11 in 10.0 mi NNW 9.2 mph - N/A   Clear
7:55 AM 60.8 °F 53.6 °F 77% 30.11 in 10.0 mi North 9.2 mph - N/A   Clear
8:15 AM 60.8 °F 53.6 °F 77% 30.11 in 10.0 mi North 9.2 mph 16.1 mph N/A   Clear
8:35 AM 62.6 °F 53.6 °F 72% 30.13 in 10.0 mi North 6.9 mph - N/A   Clear
8:55 AM 62.6 °F 53.6 °F 72% 30.13 in 10.0 mi North 10.4 mph - N/A   Clear
9:15 AM 62.6 °F 51.8 °F 68% 30.13 in 10.0 mi North 13.8 mph - N/A   Clear
9:35 AM 64.4 °F 53.6 °F 68% 30.13 in 10.0 mi North 15.0 mph - N/A   Clear
9:55 AM 66.2 °F 53.6 °F 64% 30.13 in 10.0 mi North 10.4 mph - N/A   Clear
10:15 AM 66.2 °F 51.8 °F 60% 30.13 in 10.0 mi North 13.8 mph - N/A   Clear
10:35 AM 68.0 °F 50.0 °F 52% 30.13 in 10.0 mi NNE 11.5 mph 21.9 mph N/A   Clear
10:55 AM 69.8 °F 51.8 °F 53% 30.12 in 10.0 mi North 17.3 mph - N/A   Clear
11:15 AM 69.8 °F 51.8 °F 53% 30.13 in 10.0 mi North 13.8 mph 21.9 mph N/A   Clear
11:35 AM 69.8 °F 51.8 °F 53% 30.13 in 10.0 mi North 18.4 mph - N/A   Clear
11:55 AM 71.6 °F 51.8 °F 50% 30.14 in 10.0 mi NNE 13.8 mph 19.6 mph N/A   Clear
12:15 PM 71.6 °F 51.8 °F 50% 30.14 in 10.0 mi North 11.5 mph 17.3 mph N/A   Partly Cloudy
12:35 PM 71.6 °F 51.8 °F 50% 30.14 in 10.0 mi NNE 11.5 mph 17.3 mph N/A   Scattered Clouds
12:55 PM 71.6 °F 51.8 °F 50% 30.14 in 10.0 mi NNW 8.1 mph - N/A   Partly Cloudy
1:15 PM 73.4 °F 50.0 °F 44% 30.14 in 10.0 mi North 11.5 mph 17.3 mph N/A   Clear
1:35 PM 73.4 °F 51.8 °F 47% 30.13 in 10.0 mi NNW 5.8 mph 19.6 mph N/A   Partly Cloudy
1:55 PM 73.4 °F 53.6 °F 50% 30.13 in 10.0 mi NNW 9.2 mph - N/A   Clear
2:15 PM 75.2 °F 51.8 °F 44% 30.13 in 10.0 mi NNW 11.5 mph 17.3 mph N/A   Clear
2:35 PM 75.2 °F 51.8 °F 44% 30.13 in 10.0 mi North 5.8 mph - N/A   Clear
2:55 PM 75.2 °F 51.8 °F 44% 30.13 in 10.0 mi North 8.1 mph 16.1 mph N/A   Partly Cloudy
3:15 PM 75.2 °F 51.8 °F 44% 30.12 in 10.0 mi North 5.8 mph 16.1 mph N/A   Scattered Clouds
3:35 PM 77.0 °F 51.8 °F 41% 30.11 in 10.0 mi North 13.8 mph 17.3 mph N/A   Partly Cloudy
3:55 PM 77.0 °F 48.2 °F 36% 30.11 in 10.0 mi North 8.1 mph - N/A   Clear
4:15 PM 77.0 °F 48.2 °F 36% 30.11 in 10.0 mi North 9.2 mph - N/A   Clear
4:35 PM 77.0 °F 48.2 °F 36% 30.11 in 10.0 mi North 5.8 mph - N/A   Clear
4:55 PM 77.0 °F 48.2 °F 36% 30.10 in 10.0 mi NNW 13.8 mph 17.3 mph N/A   Clear
5:15 PM 77.0 °F 46.4 °F 34% 30.10 in 10.0 mi North 8.1 mph - N/A   Clear
5:35 PM 78.8 °F 48.2 °F 34% 30.09 in 10.0 mi NNE 10.4 mph - N/A   Clear
5:55 PM 77.0 °F 48.2 °F 36% 30.09 in 10.0 mi North 10.4 mph - N/A   Clear
6:15 PM 77.0 °F 48.2 °F 36% 30.09 in 10.0 mi North 11.5 mph - N/A   Clear
6:35 PM 75.2 °F 48.2 °F 38% 30.09 in 10.0 mi NNE 9.2 mph - N/A   Clear
6:55 PM 75.2 °F 50.0 °F 41% 30.10 in 10.0 mi North 9.2 mph - N/A   Clear
7:15 PM 75.2 °F 50.0 °F 41% 30.10 in 10.0 mi North 9.2 mph - N/A   Clear
7:35 PM 73.4 °F 51.8 °F 47% 30.11 in 10.0 mi North 8.1 mph - N/A   Clear
7:55 PM 71.6 °F 51.8 °F 50% 30.11 in 10.0 mi North 5.8 mph - N/A   Clear
8:15 PM 69.8 °F 51.8 °F 53% 30.12 in 10.0 mi North - - N/A   Clear
8:35 PM 69.8 °F 51.8 °F 53% 30.12 in 10.0 mi North 4.6 mph - N/A   Clear
9:15 PM 66.2 °F 50.0 °F 56% 30.13 in 10.0 mi NNW 4.6 mph - N/A   Clear
9:35 PM 66.2 °F 50.0 °F 56% 30.14 in 10.0 mi NNW 4.6 mph - N/A   Clear
9:55 PM 64.4 °F 51.8 °F 64% 30.15 in 10.0 mi NNW 6.9 mph - N/A   Clear
10:15 PM 62.6 °F 51.8 °F 68% 30.16 in 10.0 mi North 8.1 mph - N/A   Clear
10:35 PM 62.6 °F 51.8 °F 68% 30.16 in 10.0 mi North 9.2 mph - N/A   Clear
10:55 PM 62.6 °F 51.8 °F 68% 30.17 in 10.0 mi North 9.2 mph - N/A   Clear
11:15 PM 62.6 °F 51.8 °F 68% 30.17 in 10.0 mi North 8.1 mph - N/A   Clear
11:35 PM 62.6 °F 51.8 °F 68% 30.18 in 10.0 mi North 9.2 mph - N/A   Clear
11:55 PM 62.6 °F 51.8 °F 68% 30.18 in 10.0 mi North 10.4 mph - N/A   Clear